createdAt,value
2023-01-21T00:01:49.002Z,-3.20
2023-01-21T00:03:50.831Z,-3.20
2023-01-21T00:05:52.656Z,-3.40
2023-01-21T00:07:54.366Z,-3.40
2023-01-21T00:09:56.357Z,-3.50
2023-01-21T00:11:58.680Z,-3.50
2023-01-21T00:14:00.604Z,-3.60
2023-01-21T00:16:04.068Z,-3.60
2023-01-21T00:18:06.336Z,-3.60
2023-01-21T00:20:08.587Z,-3.60
2023-01-21T00:22:10.304Z,-3.60
2023-01-21T00:24:12.274Z,-3.60
2023-01-21T00:26:14.705Z,-3.60
2023-01-21T00:28:16.517Z,-3.50
2023-01-21T00:30:18.784Z,-3.50
2023-01-21T00:32:20.673Z,-3.40
2023-01-21T00:34:22.402Z,-3.40
2023-01-21T00:36:29.689Z,-3.50
2023-01-21T00:38:32.324Z,-3.50
2023-01-21T00:40:33.967Z,-3.40
2023-01-21T00:42:35.682Z,-3.40
2023-01-21T00:44:40.463Z,-3.30
2023-01-21T00:46:42.174Z,-3.30
2023-01-21T00:48:43.943Z,-3.30
2023-01-21T00:50:45.906Z,-3.30
2023-01-21T00:52:47.623Z,-3.20
2023-01-21T00:54:49.441Z,-3.20
2023-01-21T00:56:51.130Z,-3.20
2023-01-21T00:58:53.281Z,-3.20
2023-01-21T01:01:10.358Z,-3.20
2023-01-21T01:03:12.087Z,-3.20
2023-01-21T01:05:14.733Z,-3.30
2023-01-21T01:07:16.422Z,-3.30
2023-01-21T01:09:18.215Z,-3.40
2023-01-21T01:11:21.774Z,-3.40
2023-01-21T01:13:23.512Z,-3.50
2023-01-21T01:15:25.173Z,-3.60
2023-01-21T01:17:27.095Z,-3.60
2023-01-21T01:19:28.838Z,-3.70
2023-01-21T01:21:30.902Z,-3.70
2023-01-21T01:23:33.209Z,-3.80
2023-01-21T01:25:37.916Z,-3.90
2023-01-21T01:27:39.750Z,-3.80
2023-01-21T01:29:41.437Z,-3.80
2023-01-21T01:31:44.263Z,-3.90
2023-01-21T01:33:47.344Z,-3.90
2023-01-21T01:35:49.695Z,-4.00
2023-01-21T01:37:51.417Z,-4.00
2023-01-21T01:39:53.141Z,-4.00
2023-01-21T01:41:55.174Z,-4.10
2023-01-21T01:44:02.841Z,-4.00
2023-01-21T01:46:04.646Z,-4.00
2023-01-21T01:48:06.835Z,-4.00
2023-01-21T01:50:12.464Z,-4.00
2023-01-21T01:52:16.090Z,-4.00
2023-01-21T01:54:24.342Z,-4.00
2023-01-21T01:56:29.292Z,-4.00
2023-01-21T01:58:32.235Z,-4.00
2023-01-21T02:00:34.970Z,-4.00
2023-01-21T02:02:38.307Z,-4.00
2023-01-21T02:04:47.698Z,-4.00
2023-01-21T02:06:52.335Z,-4.00
2023-01-21T02:08:54.690Z,-4.00
2023-01-21T02:10:56.769Z,-4.00
2023-01-21T02:12:58.473Z,-4.00
2023-01-21T02:15:00.340Z,-4.00
2023-01-21T02:17:17.320Z,-4.00
2023-01-21T02:19:43.054Z,-3.90
2023-01-21T02:21:59.907Z,-3.90
2023-01-21T02:24:22.430Z,-3.90
2023-01-21T02:26:52.287Z,-3.90
2023-01-21T02:28:53.930Z,-4.00
2023-01-21T02:31:28.364Z,-4.00
2023-01-21T02:33:41.846Z,-4.00
2023-01-21T02:35:59.092Z,-4.00
2023-01-21T02:38:24.303Z,-4.00
2023-01-21T02:41:10.332Z,-4.10
2023-01-21T02:43:36.247Z,-4.10
2023-01-21T02:45:47.507Z,-4.10
2023-01-21T02:48:15.679Z,-4.10
2023-01-21T02:50:26.558Z,-4.10
2023-01-21T02:52:28.802Z,-4.10
2023-01-21T02:54:39.495Z,-4.10
2023-01-21T02:56:43.825Z,-4.20
2023-01-21T02:58:57.551Z,-4.20
2023-01-21T03:01:16.703Z,-4.20
2023-01-21T03:03:41.498Z,-4.10
2023-01-21T03:06:16.222Z,-4.10
2023-01-21T03:08:22.056Z,-4.10
2023-01-21T03:10:40.393Z,-4.10
2023-01-21T03:13:06.680Z,-4.00
2023-01-21T03:15:30.100Z,-4.00
2023-01-21T03:17:47.723Z,-4.00
2023-01-21T03:20:04.457Z,-4.00
2023-01-21T03:22:11.230Z,-4.10
2023-01-21T03:24:14.714Z,-4.10
2023-01-21T03:26:26.458Z,-4.20
2023-01-21T03:28:34.515Z,-4.30
2023-01-21T03:30:40.421Z,-4.30
2023-01-21T03:32:46.514Z,-4.50
2023-01-21T03:34:51.581Z,-4.50
2023-01-21T03:37:34.353Z,-4.50
2023-01-21T03:39:57.342Z,-4.50
2023-01-21T03:41:59.374Z,-4.50
2023-01-21T03:44:01.301Z,-4.50
2023-01-21T03:46:21.906Z,-4.50
2023-01-21T03:48:36.191Z,-4.40
2023-01-21T03:50:44.290Z,-4.40
2023-01-21T03:52:46.361Z,-4.40
2023-01-21T03:54:49.134Z,-4.50
2023-01-21T03:56:50.961Z,-4.50
2023-01-21T03:58:53.149Z,-4.40
2023-01-21T04:00:54.999Z,-4.40
2023-01-21T04:02:56.975Z,-4.40
2023-01-21T04:04:58.760Z,-4.40
2023-01-21T04:07:00.659Z,-4.40
2023-01-21T04:09:03.617Z,-4.40
2023-01-21T04:11:05.539Z,-4.40
2023-01-21T04:13:07.200Z,-4.50
2023-01-21T04:15:09.792Z,-4.60
2023-01-21T04:17:11.815Z,-4.70
2023-01-21T04:19:13.732Z,-4.70
2023-01-21T04:21:16.041Z,-4.80
2023-01-21T04:23:17.783Z,-4.80
2023-01-21T04:25:19.471Z,-4.80
2023-01-21T04:27:21.118Z,-4.80
2023-01-21T04:29:22.991Z,-4.80
2023-01-21T04:31:25.030Z,-4.70
2023-01-21T04:33:26.926Z,-4.70
2023-01-21T04:35:28.658Z,-4.70
2023-01-21T04:37:30.531Z,-4.70
2023-01-21T04:39:32.549Z,-4.60
2023-01-21T04:41:34.404Z,-4.70
2023-01-21T04:43:36.430Z,-4.70
2023-01-21T04:45:38.258Z,-4.60
2023-01-21T04:47:43.804Z,-4.60
2023-01-21T04:49:45.565Z,-4.70
2023-01-21T04:51:47.331Z,-4.70
2023-01-21T04:53:49.004Z,-4.70
2023-01-21T04:55:54.099Z,-4.70
2023-01-21T04:57:55.853Z,-4.70
2023-01-21T04:59:57.607Z,-4.70
2023-01-21T05:01:59.400Z,-4.70
2023-01-21T05:04:01.309Z,-4.80
2023-01-21T05:06:03.086Z,-4.80
2023-01-21T05:08:04.897Z,-4.80
2023-01-21T05:10:07.289Z,-4.80
2023-01-21T05:12:09.426Z,-4.90
2023-01-21T05:14:11.174Z,-4.90
2023-01-21T05:16:14.328Z,-4.90
2023-01-21T05:18:16.393Z,-4.90
2023-01-21T05:20:18.403Z,-4.90
2023-01-21T05:22:20.213Z,-4.80
2023-01-21T05:24:22.261Z,-4.80
2023-01-21T05:26:24.284Z,-4.80
2023-01-21T05:28:26.131Z,-4.80
2023-01-21T05:30:27.886Z,-4.80
2023-01-21T05:32:29.747Z,-4.80
2023-01-21T05:34:31.444Z,-4.80
2023-01-21T05:36:33.497Z,-4.80
2023-01-21T05:38:35.238Z,-4.80
2023-01-21T05:40:37.177Z,-4.80
2023-01-21T05:42:38.827Z,-4.90
2023-01-21T05:44:40.607Z,-5.00
2023-01-21T05:46:42.351Z,-5.10
2023-01-21T05:48:44.098Z,-5.20
2023-01-21T05:50:45.927Z,-5.20
2023-01-21T05:52:47.589Z,-5.20
2023-01-21T05:55:00.911Z,-5.30
2023-01-21T05:57:03.510Z,-5.30
2023-01-21T05:59:05.506Z,-5.30
2023-01-21T06:01:07.397Z,-5.40
2023-01-21T06:03:09.345Z,-5.40
2023-01-21T06:05:11.142Z,-5.50
2023-01-21T06:07:12.836Z,-5.50
2023-01-21T06:09:14.628Z,-5.50
2023-01-21T06:11:16.324Z,-5.60
2023-01-21T06:13:18.038Z,-5.70
2023-01-21T06:15:20.495Z,-5.70
2023-01-21T06:17:22.378Z,-5.70
2023-01-21T06:19:24.120Z,-5.80
2023-01-21T06:21:25.967Z,-5.80
2023-01-21T06:23:27.945Z,-5.90
2023-01-21T06:25:30.499Z,-5.90
2023-01-21T06:27:32.234Z,-5.90
2023-01-21T06:29:34.076Z,-6.00
2023-01-21T06:31:35.955Z,-6.00
2023-01-21T06:33:37.815Z,-6.10
2023-01-21T06:35:39.763Z,-6.10
2023-01-21T06:37:41.519Z,-6.10
2023-01-21T06:39:43.224Z,-6.10
2023-01-21T06:41:45.043Z,-6.10
2023-01-21T06:43:46.802Z,-6.10
2023-01-21T06:45:48.502Z,-6.20
2023-01-21T06:47:50.323Z,-6.20
2023-01-21T06:49:52.095Z,-6.20
2023-01-21T06:51:53.747Z,-6.10
2023-01-21T06:53:55.416Z,-6.10
2023-01-21T06:55:57.158Z,-6.20
2023-01-21T06:57:59.010Z,-6.20
2023-01-21T07:00:00.768Z,-6.20
2023-01-21T07:02:02.690Z,-6.20
2023-01-21T07:04:04.611Z,-6.10
2023-01-21T07:06:06.668Z,-6.00
2023-01-21T07:08:08.408Z,-5.90
2023-01-21T07:10:10.948Z,-5.80
2023-01-21T07:12:13.379Z,-5.60
2023-01-21T07:14:15.430Z,-5.50
2023-01-21T07:16:17.349Z,-5.40
2023-01-21T07:18:19.212Z,-5.30
2023-01-21T07:20:22.630Z,-5.20
2023-01-21T07:22:24.659Z,-5.10
2023-01-21T07:24:26.671Z,-5.10
2023-01-21T07:26:28.394Z,-5.00
2023-01-21T07:28:30.047Z,-5.00
2023-01-21T07:30:31.881Z,-4.90
2023-01-21T07:32:33.578Z,-4.80
2023-01-21T07:34:35.273Z,-4.70
2023-01-21T07:36:36.974Z,-4.70
2023-01-21T07:38:39.023Z,-4.70
2023-01-21T07:40:40.655Z,-4.70
2023-01-21T07:42:42.495Z,-4.60
2023-01-21T07:44:44.448Z,-4.40
2023-01-21T07:46:46.570Z,-4.40
2023-01-21T07:48:49.571Z,-4.30
2023-01-21T07:50:51.415Z,-4.30
2023-01-21T07:52:57.031Z,-4.20
2023-01-21T07:54:59.013Z,-4.10
2023-01-21T07:57:00.685Z,-4.00
2023-01-21T07:59:02.432Z,-4.00
2023-01-21T08:01:05.941Z,-3.90
2023-01-21T08:03:07.605Z,-3.90
2023-01-21T08:05:09.930Z,-3.80
2023-01-21T08:07:13.256Z,-3.70
2023-01-21T08:09:15.448Z,-3.70
2023-01-21T08:11:17.463Z,-3.70
2023-01-21T08:13:19.419Z,-3.70
2023-01-21T08:15:21.265Z,-3.60
2023-01-21T08:17:24.700Z,-3.60
2023-01-21T08:19:26.537Z,-3.60
2023-01-21T08:21:28.205Z,-3.70
2023-01-21T08:23:30.042Z,-3.80
2023-01-21T08:25:31.737Z,-3.90
2023-01-21T08:27:33.814Z,-4.00
2023-01-21T08:29:35.839Z,-3.90
2023-01-21T08:31:38.130Z,-4.00
2023-01-21T08:33:40.510Z,-4.00
2023-01-21T08:35:42.248Z,-3.90
2023-01-21T08:37:44.217Z,-4.00
2023-01-21T08:39:45.935Z,-4.00
2023-01-21T08:41:47.730Z,-4.00
2023-01-21T08:43:49.554Z,-4.00
2023-01-21T08:45:51.449Z,-4.00
2023-01-21T08:47:53.296Z,-3.90
2023-01-21T08:49:54.985Z,-3.80
2023-01-21T08:51:56.866Z,-3.70
2023-01-21T08:53:58.916Z,-3.60
2023-01-21T08:56:02.362Z,-3.60
2023-01-21T08:58:04.353Z,-3.50
2023-01-21T09:00:06.753Z,-3.50
2023-01-21T09:02:10.738Z,-3.50
2023-01-21T09:04:12.736Z,-3.50
2023-01-21T09:06:14.552Z,-3.40
2023-01-21T09:08:16.228Z,-3.30
2023-01-21T09:10:37.486Z,-3.30
2023-01-21T09:12:41.024Z,-3.20
2023-01-21T09:14:42.990Z,-3.30
2023-01-21T09:16:44.722Z,-3.30
2023-01-21T09:18:47.619Z,-3.20
2023-01-21T09:20:49.507Z,-3.20
2023-01-21T09:22:51.491Z,-3.10
2023-01-21T09:24:53.682Z,-3.00
2023-01-21T09:26:55.404Z,-2.90
2023-01-21T09:28:59.112Z,-2.90
2023-01-21T09:31:03.583Z,-2.90
2023-01-21T09:33:05.332Z,-2.70
2023-01-21T09:35:07.617Z,-2.60
2023-01-21T09:37:09.369Z,-2.60
2023-01-21T09:39:11.213Z,-2.50
2023-01-21T09:41:21.546Z,-2.40
2023-01-21T09:43:30.158Z,-2.30
2023-01-21T09:45:31.873Z,-2.10
2023-01-21T09:47:38.018Z,-2.10
2023-01-21T09:49:45.652Z,-2.00
2023-01-21T09:52:00.606Z,-1.90
2023-01-21T09:54:04.728Z,-2.00
2023-01-21T09:56:15.775Z,-2.10
2023-01-21T09:58:57.609Z,-2.20
2023-01-21T10:01:07.194Z,-2.20
2023-01-21T10:03:08.912Z,-2.30
2023-01-21T10:05:41.736Z,-2.30
2023-01-21T10:07:58.118Z,-2.30
2023-01-21T10:10:02.707Z,-2.30
2023-01-21T10:12:22.879Z,-2.30
2023-01-21T10:14:46.854Z,-2.30
2023-01-21T10:17:13.023Z,-2.40
2023-01-21T10:19:24.256Z,-2.50
2023-01-21T10:21:30.908Z,-2.50
2023-01-21T10:23:39.069Z,-2.40
2023-01-21T10:25:41.716Z,-2.50
2023-01-21T10:27:45.368Z,-2.40
2023-01-21T10:29:50.195Z,-2.30
2023-01-21T10:31:55.398Z,-2.30
2023-01-21T10:33:57.433Z,-2.20
2023-01-21T10:36:17.097Z,-2.20
2023-01-21T10:38:38.807Z,-2.20
2023-01-21T10:40:55.832Z,-2.10
2023-01-21T10:43:07.439Z,-2.10
2023-01-21T10:45:41.462Z,-2.10
2023-01-21T10:47:43.126Z,-2.00
2023-01-21T10:49:59.671Z,-2.20
2023-01-21T10:52:09.489Z,-2.20
2023-01-21T10:54:33.790Z,-2.20
2023-01-21T10:56:59.479Z,-2.20
2023-01-21T10:59:09.175Z,-2.20
2023-01-21T11:01:28.173Z,-2.20
2023-01-21T11:03:53.261Z,-2.00
2023-01-21T11:05:55.479Z,-2.00
2023-01-21T11:07:57.956Z,-1.90
2023-01-21T11:10:02.444Z,-1.80
2023-01-21T11:12:04.467Z,-1.90
2023-01-21T11:14:06.196Z,-1.80
2023-01-21T11:16:08.682Z,-1.90
2023-01-21T11:18:35.024Z,-1.80
2023-01-21T11:20:41.044Z,-1.80
2023-01-21T11:22:45.492Z,-1.70
2023-01-21T11:24:49.785Z,-1.60
2023-01-21T11:26:58.244Z,-1.60
2023-01-21T11:29:18.171Z,-1.60
2023-01-21T11:31:27.537Z,-1.60
2023-01-21T11:33:29.420Z,-1.50
2023-01-21T11:35:31.244Z,-1.40
2023-01-21T11:37:33.882Z,-1.30
2023-01-21T11:39:40.000Z,-1.30
2023-01-21T11:41:58.841Z,-1.30
2023-01-21T11:44:17.860Z,-1.30
2023-01-21T11:46:39.661Z,-1.30
2023-01-21T11:48:44.311Z,-1.30
2023-01-21T11:50:46.195Z,-1.30
2023-01-21T11:52:47.991Z,-1.20
2023-01-21T11:54:49.746Z,-1.20
2023-01-21T11:57:00.106Z,-1.40
2023-01-21T11:59:02.451Z,-1.30
2023-01-21T12:01:07.903Z,-1.40
2023-01-21T12:03:16.682Z,-1.40
2023-01-21T12:05:40.423Z,-1.40
2023-01-21T12:07:47.131Z,-1.20
2023-01-21T12:10:02.407Z,-1.00
2023-01-21T12:12:48.281Z,-0.90
2023-01-21T12:14:56.115Z,-0.80
2023-01-21T12:17:30.185Z,-0.70
2023-01-21T12:19:59.656Z,-0.70
2023-01-21T12:22:23.065Z,-0.60
2023-01-21T12:24:43.420Z,-0.50
2023-01-21T12:26:57.341Z,-0.50
2023-01-21T12:29:15.895Z,-0.50
2023-01-21T12:31:32.994Z,-0.40
2023-01-21T12:33:46.142Z,-0.30
2023-01-21T12:35:52.568Z,-0.40
2023-01-21T12:38:12.842Z,-0.30
2023-01-21T12:40:24.967Z,-0.30
2023-01-21T12:42:37.255Z,-0.20
2023-01-21T12:45:00.733Z,-0.20
2023-01-21T12:47:32.762Z,-0.40
2023-01-21T12:49:58.808Z,-0.50
2023-01-21T12:52:06.298Z,-0.60
2023-01-21T12:54:23.832Z,-0.70
2023-01-21T12:56:34.270Z,-0.80
2023-01-21T12:58:49.147Z,-0.90
2023-01-21T13:00:54.118Z,-1.00
2023-01-21T13:03:23.302Z,-1.10
2023-01-21T13:06:03.655Z,-1.10
2023-01-21T13:08:25.711Z,-1.10
2023-01-21T13:10:42.323Z,-1.20
2023-01-21T13:12:49.261Z,-1.20
2023-01-21T13:15:05.130Z,-1.20
2023-01-21T13:17:20.017Z,-1.10
2023-01-21T13:19:22.595Z,-1.10
2023-01-21T13:21:28.508Z,-1.00
2023-01-21T13:23:43.269Z,-1.10
2023-01-21T13:25:54.622Z,-1.00
2023-01-21T13:28:23.451Z,-1.00
2023-01-21T13:30:51.065Z,-1.00
2023-01-21T13:33:25.543Z,-1.00
2023-01-21T13:35:55.068Z,-1.00
2023-01-21T13:38:02.645Z,-1.00
2023-01-21T13:40:41.064Z,-1.00
2023-01-21T13:43:04.261Z,-0.90
2023-01-21T13:45:21.989Z,-1.00
2023-01-21T13:48:01.925Z,-1.10
2023-01-21T13:50:21.659Z,-1.10
2023-01-21T13:52:54.902Z,-1.10
2023-01-21T13:55:12.874Z,-1.10
2023-01-21T13:57:27.319Z,-1.20
2023-01-21T13:59:36.795Z,-1.20
2023-01-21T14:01:49.469Z,-1.30
2023-01-21T14:04:03.780Z,-1.40
2023-01-21T14:06:16.372Z,-1.40
2023-01-21T14:08:30.074Z,-1.40
2023-01-21T14:10:36.811Z,-1.30
2023-01-21T14:13:27.889Z,-1.40
2023-01-21T14:16:04.455Z,-1.50
2023-01-21T14:18:21.370Z,-1.50
2023-01-21T14:20:52.920Z,-1.50
2023-01-21T14:23:06.304Z,-1.50
2023-01-21T14:25:26.830Z,-1.50
2023-01-21T14:27:37.509Z,-1.50
2023-01-21T14:29:45.238Z,-1.60
2023-01-21T14:32:19.332Z,-1.60
2023-01-21T14:34:39.925Z,-1.70
2023-01-21T14:37:06.852Z,-1.70
2023-01-21T14:39:35.823Z,-1.80
2023-01-21T14:42:12.665Z,-1.80
2023-01-21T14:44:51.535Z,-1.80
2023-01-21T14:47:22.888Z,-1.80
2023-01-21T14:49:41.929Z,-1.80
2023-01-21T14:51:48.727Z,-1.90
2023-01-21T14:53:52.640Z,-1.90
2023-01-21T14:56:20.758Z,-1.90
2023-01-21T14:58:27.498Z,-1.90
2023-01-21T15:00:37.193Z,-2.00
2023-01-21T15:02:45.933Z,-2.00
2023-01-21T15:04:55.217Z,-2.10
2023-01-21T15:07:03.302Z,-2.10
2023-01-21T15:09:06.680Z,-2.20
2023-01-21T15:11:23.505Z,-2.10
2023-01-21T15:13:37.138Z,-2.20
2023-01-21T15:16:17.334Z,-2.30
2023-01-21T15:18:26.423Z,-2.20
2023-01-21T15:20:43.835Z,-2.30
2023-01-21T15:22:48.094Z,-2.30
2023-01-21T15:25:12.570Z,-2.30
2023-01-21T15:27:14.301Z,-2.30
2023-01-21T15:29:33.534Z,-2.30
2023-01-21T15:31:45.434Z,-2.30
2023-01-21T15:33:47.458Z,-2.30
2023-01-21T15:35:49.637Z,-2.30
2023-01-21T15:37:59.088Z,-2.30
2023-01-21T15:40:14.491Z,-2.30
2023-01-21T15:42:35.725Z,-2.30
2023-01-21T15:45:05.001Z,-2.40
2023-01-21T15:47:18.923Z,-2.40
2023-01-21T15:49:39.314Z,-2.40
2023-01-21T15:52:04.644Z,-2.50
2023-01-21T15:54:15.687Z,-2.40
2023-01-21T15:56:26.743Z,-2.50
2023-01-21T15:58:43.798Z,-2.50
2023-01-21T16:00:53.470Z,-2.50
2023-01-21T16:03:10.601Z,-2.50
2023-01-21T16:05:22.106Z,-2.50
2023-01-21T16:07:45.389Z,-2.50
2023-01-21T16:09:47.360Z,-2.50
2023-01-21T16:11:55.065Z,-2.50
2023-01-21T16:14:15.174Z,-2.50
2023-01-21T16:16:28.948Z,-2.50
2023-01-21T16:18:52.645Z,-2.50
2023-01-21T16:20:56.412Z,-2.50
2023-01-21T16:23:00.522Z,-2.50
2023-01-21T16:25:10.186Z,-2.60
2023-01-21T16:27:25.436Z,-2.50
2023-01-21T16:29:27.182Z,-2.50
2023-01-21T16:31:28.999Z,-2.50
2023-01-21T16:33:31.096Z,-2.50
2023-01-21T16:35:44.258Z,-2.50
2023-01-21T16:37:54.756Z,-2.50
2023-01-21T16:40:25.224Z,-2.50
2023-01-21T16:42:37.967Z,-2.50
2023-01-21T16:44:39.774Z,-2.50
2023-01-21T16:46:41.976Z,-2.50
2023-01-21T16:48:48.868Z,-2.50
2023-01-21T16:50:51.389Z,-2.50
2023-01-21T16:52:54.462Z,-2.50
2023-01-21T16:54:56.570Z,-2.50
2023-01-21T16:57:01.450Z,-2.50
2023-01-21T16:59:03.333Z,-2.50
2023-01-21T17:01:09.220Z,-2.60
2023-01-21T17:03:11.919Z,-2.60
2023-01-21T17:05:14.309Z,-2.60
2023-01-21T17:07:21.435Z,-2.60
2023-01-21T17:09:36.494Z,-2.50
2023-01-21T17:11:45.936Z,-2.60
2023-01-21T17:13:48.658Z,-2.50
2023-01-21T17:16:00.701Z,-2.60
2023-01-21T17:18:03.863Z,-2.60
2023-01-21T17:20:06.094Z,-2.60
2023-01-21T17:22:14.943Z,-2.60
2023-01-21T17:24:24.242Z,-2.60
2023-01-21T17:26:41.821Z,-2.60
2023-01-21T17:28:59.887Z,-2.60
2023-01-21T17:31:21.018Z,-2.60
2023-01-21T17:33:30.381Z,-2.50
2023-01-21T17:35:35.632Z,-2.60
2023-01-21T17:37:58.486Z,-2.50
2023-01-21T17:40:01.173Z,-2.50
2023-01-21T17:42:04.632Z,-2.50
2023-01-21T17:44:19.402Z,-2.60
2023-01-21T17:46:23.080Z,-2.60
2023-01-21T17:48:32.091Z,-2.50
2023-01-21T17:50:34.305Z,-2.50
2023-01-21T17:52:36.046Z,-2.50
2023-01-21T17:54:37.783Z,-2.50
2023-01-21T17:56:47.642Z,-2.50
2023-01-21T17:58:51.147Z,-2.50
2023-01-21T18:00:52.949Z,-2.50
2023-01-21T18:02:54.775Z,-2.50
2023-01-21T18:04:56.604Z,-2.50
2023-01-21T18:06:58.518Z,-2.50
2023-01-21T18:09:02.282Z,-2.50
2023-01-21T18:11:04.072Z,-2.50
2023-01-21T18:13:06.101Z,-2.60
2023-01-21T18:15:08.203Z,-2.50
2023-01-21T18:17:23.590Z,-2.60
2023-01-21T18:19:37.121Z,-2.50
2023-01-21T18:21:38.932Z,-2.50
2023-01-21T18:23:40.621Z,-2.50
2023-01-21T18:25:42.672Z,-2.50
2023-01-21T18:27:47.016Z,-2.50
2023-01-21T18:29:49.286Z,-2.50
2023-01-21T18:31:52.315Z,-2.60
2023-01-21T18:33:54.234Z,-2.50
2023-01-21T18:35:56.022Z,-2.50
2023-01-21T18:37:57.923Z,-2.50
2023-01-21T18:39:59.712Z,-2.60
2023-01-21T18:42:01.554Z,-2.60
2023-01-21T18:44:03.337Z,-2.60
2023-01-21T18:46:11.202Z,-2.60
2023-01-21T18:48:17.434Z,-2.60
2023-01-21T18:50:22.134Z,-2.60
2023-01-21T18:52:26.448Z,-2.60
2023-01-21T18:54:28.097Z,-2.60
2023-01-21T18:56:29.844Z,-2.60
2023-01-21T18:58:32.089Z,-2.60
2023-01-21T19:00:34.191Z,-2.60
2023-01-21T19:02:36.021Z,-2.60
2023-01-21T19:04:37.721Z,-2.60
2023-01-21T19:06:39.389Z,-2.60
2023-01-21T19:08:44.989Z,-2.60
2023-01-21T19:10:46.669Z,-2.60
2023-01-21T19:12:49.015Z,-2.60
2023-01-21T19:14:51.029Z,-2.60
2023-01-21T19:16:52.962Z,-2.60
2023-01-21T19:18:54.688Z,-2.60
2023-01-21T19:20:56.459Z,-2.60
2023-01-21T19:22:58.156Z,-2.60
2023-01-21T19:25:00.006Z,-2.60
2023-01-21T19:27:01.751Z,-2.60
2023-01-21T19:29:05.005Z,-2.60
2023-01-21T19:31:07.023Z,-2.60
2023-01-21T19:33:09.210Z,-2.60
2023-01-21T19:35:15.384Z,-2.60
2023-01-21T19:37:23.414Z,-2.60
2023-01-21T19:39:25.567Z,-2.60
2023-01-21T19:41:27.554Z,-2.60
2023-01-21T19:43:29.405Z,-2.60
2023-01-21T19:45:31.459Z,-2.60
2023-01-21T19:47:33.104Z,-2.60
2023-01-21T19:49:35.030Z,-2.60
2023-01-21T19:51:36.711Z,-2.60
2023-01-21T19:53:38.405Z,-2.60
2023-01-21T19:55:41.422Z,-2.60
2023-01-21T19:57:45.528Z,-2.60
2023-01-21T19:59:50.592Z,-2.60
2023-01-21T20:01:52.427Z,-2.60
2023-01-21T20:04:00.326Z,-2.60
2023-01-21T20:06:05.709Z,-2.60
2023-01-21T20:08:11.426Z,-2.60
2023-01-21T20:10:24.486Z,-2.60
2023-01-21T20:12:26.389Z,-2.60
2023-01-21T20:14:28.402Z,-2.60
2023-01-21T20:16:31.252Z,-2.60
2023-01-21T20:18:33.381Z,-2.60
2023-01-21T20:20:35.236Z,-2.60
2023-01-21T20:22:36.905Z,-2.60
2023-01-21T20:24:38.597Z,-2.60
2023-01-21T20:26:40.969Z,-2.70
2023-01-21T20:28:47.703Z,-2.70
2023-01-21T20:30:50.955Z,-2.60
2023-01-21T20:32:52.904Z,-2.70
2023-01-21T20:34:54.627Z,-2.60
2023-01-21T20:36:56.583Z,-2.60
2023-01-21T20:38:58.451Z,-2.70
2023-01-21T20:41:01.105Z,-2.60
2023-01-21T20:43:03.346Z,-2.70
2023-01-21T20:45:05.714Z,-2.70
2023-01-21T20:47:09.836Z,-2.70
2023-01-21T20:49:12.246Z,-2.70
2023-01-21T20:51:14.182Z,-2.70
2023-01-21T20:53:16.320Z,-2.70
2023-01-21T20:55:20.938Z,-2.70
2023-01-21T20:57:22.991Z,-2.70
2023-01-21T20:59:25.017Z,-2.70
2023-01-21T21:01:27.339Z,-2.70
2023-01-21T21:03:29.223Z,-2.60
2023-01-21T21:05:31.350Z,-2.60
2023-01-21T21:07:33.425Z,-2.70
2023-01-21T21:09:36.277Z,-2.70
2023-01-21T21:11:38.143Z,-2.70
2023-01-21T21:13:40.194Z,-2.70
2023-01-21T21:15:45.055Z,-2.80
2023-01-21T21:17:49.019Z,-2.80
2023-01-21T21:19:51.026Z,-2.80
2023-01-21T21:21:52.885Z,-2.80
2023-01-21T21:23:54.578Z,-2.80
2023-01-21T21:25:56.418Z,-2.80
2023-01-21T21:27:58.475Z,-2.80
2023-01-21T21:30:00.505Z,-2.80
2023-01-21T21:32:02.522Z,-2.80
2023-01-21T21:34:04.290Z,-2.80
2023-01-21T21:36:11.577Z,-2.80
2023-01-21T21:38:21.728Z,-2.80
2023-01-21T21:40:25.661Z,-2.70
2023-01-21T21:42:46.132Z,-2.70
2023-01-21T21:44:48.098Z,-2.80
2023-01-21T21:47:08.341Z,-2.80
2023-01-21T21:49:10.567Z,-2.80
2023-01-21T21:51:17.658Z,-2.80
2023-01-21T21:53:19.513Z,-2.80
2023-01-21T21:55:21.346Z,-2.80
2023-01-21T21:57:22.998Z,-2.90
2023-01-21T21:59:24.732Z,-2.80
2023-01-21T22:01:30.401Z,-2.80
2023-01-21T22:03:32.227Z,-2.80
2023-01-21T22:05:35.480Z,-2.80
2023-01-21T22:07:38.757Z,-2.80
2023-01-21T22:09:40.450Z,-2.90
2023-01-21T22:11:42.287Z,-2.80
2023-01-21T22:13:45.698Z,-2.90
2023-01-21T22:15:56.620Z,-2.80
2023-01-21T22:17:58.664Z,-2.90
2023-01-21T22:20:00.353Z,-2.90
2023-01-21T22:22:02.035Z,-2.90
2023-01-21T22:24:08.528Z,-2.90
2023-01-21T22:26:13.094Z,-2.90
2023-01-21T22:28:14.881Z,-2.90
2023-01-21T22:30:16.907Z,-2.80
2023-01-21T22:32:18.942Z,-2.90
2023-01-21T22:34:20.778Z,-2.80
2023-01-21T22:36:24.423Z,-2.90
2023-01-21T22:38:26.241Z,-2.80
2023-01-21T22:40:28.229Z,-2.80
2023-01-21T22:42:29.928Z,-2.80
2023-01-21T22:44:31.690Z,-2.80
2023-01-21T22:46:34.061Z,-2.80
2023-01-21T22:48:35.800Z,-2.80
2023-01-21T22:50:40.620Z,-2.80
2023-01-21T22:52:42.523Z,-2.80
2023-01-21T22:54:44.190Z,-2.80
2023-01-21T22:56:52.478Z,-2.80
2023-01-21T22:58:54.846Z,-2.80
2023-01-21T23:00:57.739Z,-2.80
2023-01-21T23:02:59.444Z,-2.80
2023-01-21T23:05:01.236Z,-2.80
2023-01-21T23:07:03.071Z,-2.70
2023-01-21T23:09:06.698Z,-2.70
2023-01-21T23:11:12.693Z,-2.70
2023-01-21T23:13:16.006Z,-2.70
2023-01-21T23:15:17.828Z,-2.80
2023-01-21T23:17:19.529Z,-2.70
2023-01-21T23:19:21.230Z,-2.80
2023-01-21T23:21:22.910Z,-2.80
2023-01-21T23:23:24.941Z,-2.80
2023-01-21T23:25:26.676Z,-2.80
2023-01-21T23:27:28.374Z,-2.80
2023-01-21T23:29:30.057Z,-2.80
2023-01-21T23:31:31.902Z,-2.80
2023-01-21T23:33:34.135Z,-2.80
2023-01-21T23:35:35.838Z,-2.80
2023-01-21T23:37:38.729Z,-2.80
2023-01-21T23:39:40.454Z,-2.80
2023-01-21T23:41:42.244Z,-2.80
2023-01-21T23:43:44.315Z,-2.80
2023-01-21T23:45:46.167Z,-2.80
2023-01-21T23:47:47.869Z,-2.80
2023-01-21T23:49:49.741Z,-2.70
2023-01-21T23:51:51.403Z,-2.80
2023-01-21T23:53:53.048Z,-2.70
2023-01-21T23:56:10.396Z,-2.70
2023-01-21T23:58:12.278Z,-2.70
